createdAt,value
2019-01-20T00:01:21.038Z,-1.70
2019-01-20T00:03:54.106Z,-1.70
2019-01-20T00:06:21.138Z,-2.00
2019-01-20T00:08:48.231Z,-2.00
2019-01-20T00:11:16.739Z,-2.10
2019-01-20T00:13:45.165Z,-2.10
2019-01-20T00:16:18.266Z,-2.10
2019-01-20T00:18:45.278Z,-2.10
2019-01-20T00:21:12.410Z,-2.10
2019-01-20T00:23:39.779Z,-2.00
2019-01-20T00:26:06.822Z,-2.20
2019-01-20T00:28:35.092Z,-2.20
2019-01-20T00:31:03.292Z,-2.20
2019-01-20T00:33:31.690Z,-2.30
2019-01-20T00:36:04.723Z,-2.30
2019-01-20T00:38:31.769Z,-2.20
2019-01-20T00:40:58.814Z,-2.20
2019-01-20T00:43:26.668Z,-2.30
2019-01-20T00:45:54.001Z,-2.30
2019-01-20T00:48:22.450Z,-2.30
2019-01-20T00:50:54.006Z,-2.00
2019-01-20T00:53:21.574Z,-2.30
2019-01-20T00:55:49.626Z,-2.30
2019-01-20T00:58:18.122Z,-2.30
2019-01-20T01:00:45.786Z,-2.30
2019-01-20T01:03:12.992Z,-2.40
2019-01-20T01:05:40.889Z,-2.40
2019-01-20T01:08:11.001Z,-2.40
2019-01-20T01:10:39.529Z,-2.40
2019-01-20T01:13:08.931Z,-2.40
2019-01-20T01:15:37.532Z,-2.50
2019-01-20T01:18:06.151Z,-2.30
2019-01-20T01:20:33.369Z,-2.50
2019-01-20T01:23:01.940Z,-2.50
2019-01-20T01:25:30.105Z,-2.50
2019-01-20T01:27:58.702Z,-2.50
2019-01-20T01:30:27.302Z,-2.50
2019-01-20T01:32:55.973Z,-2.50
2019-01-20T01:35:24.507Z,-2.60
2019-01-20T01:37:52.587Z,-2.60
2019-01-20T01:40:20.930Z,-2.60
2019-01-20T01:42:49.053Z,-2.60
2019-01-20T01:45:18.471Z,-2.60
2019-01-20T01:47:47.166Z,-2.70
2019-01-20T01:50:17.121Z,-2.70
2019-01-20T01:52:45.386Z,-2.70
2019-01-20T01:55:13.721Z,-2.70
2019-01-20T01:57:42.273Z,-2.50
2019-01-20T02:00:21.102Z,-2.70
2019-01-20T02:02:49.222Z,-2.70
2019-01-20T02:05:17.943Z,-2.40
2019-01-20T02:07:46.074Z,-2.80
2019-01-20T02:10:19.451Z,-2.80
2019-01-20T02:12:47.258Z,-2.80
2019-01-20T02:15:15.850Z,-2.80
2019-01-20T02:17:44.065Z,-2.90
2019-01-20T02:20:16.630Z,-2.50
2019-01-20T02:22:44.037Z,-2.80
2019-01-20T02:25:12.062Z,-2.60
2019-01-20T02:27:39.094Z,-2.90
2019-01-20T02:30:19.405Z,-2.90
2019-01-20T02:32:46.792Z,-2.90
2019-01-20T02:35:14.118Z,-2.90
2019-01-20T02:37:41.051Z,-2.90
2019-01-20T02:40:11.993Z,-2.90
2019-01-20T02:42:39.152Z,-2.90
2019-01-20T02:45:07.668Z,-3.00
2019-01-20T02:47:34.658Z,-2.50
2019-01-20T02:50:02.118Z,-3.00
2019-01-20T02:52:30.043Z,-2.60
2019-01-20T02:54:57.942Z,-3.10
2019-01-20T02:57:25.882Z,-3.00
2019-01-20T02:59:53.980Z,-3.20
2019-01-20T03:02:22.058Z,-3.10
2019-01-20T03:04:51.637Z,-3.20
2019-01-20T03:07:20.255Z,-2.90
2019-01-20T03:09:48.662Z,-3.50
2019-01-20T03:12:17.933Z,-3.20
2019-01-20T03:14:44.843Z,-3.20
2019-01-20T03:17:12.770Z,-3.20
2019-01-20T03:19:40.806Z,-3.20
2019-01-20T03:22:08.976Z,-3.20
2019-01-20T03:24:37.027Z,-3.30
2019-01-20T03:27:05.131Z,-3.20
2019-01-20T03:29:33.348Z,-2.90
2019-01-20T03:32:04.355Z,-3.30
2019-01-20T03:34:31.254Z,-3.30
2019-01-20T03:36:58.287Z,-2.90
2019-01-20T03:39:26.202Z,-3.40
2019-01-20T03:41:54.510Z,-3.10
2019-01-20T03:44:23.406Z,-3.00
2019-01-20T03:46:51.876Z,-3.40
2019-01-20T03:49:19.086Z,-3.10
2019-01-20T03:51:50.956Z,-3.40
2019-01-20T03:54:18.030Z,-2.80
2019-01-20T03:56:45.054Z,-3.40
2019-01-20T03:59:12.186Z,-3.30
2019-01-20T04:01:40.357Z,-3.40
2019-01-20T04:04:08.358Z,-3.40
2019-01-20T04:06:36.690Z,-3.40
2019-01-20T04:09:06.649Z,-3.50
2019-01-20T04:11:35.214Z,-3.50
2019-01-20T04:14:04.084Z,-3.10
2019-01-20T04:16:32.223Z,-3.40
2019-01-20T04:19:00.386Z,-3.30
2019-01-20T04:21:28.409Z,-3.50
2019-01-20T04:23:57.886Z,-3.50
2019-01-20T04:26:25.062Z,-3.60
2019-01-20T04:28:53.162Z,-3.40
2019-01-20T04:31:21.226Z,-3.60
2019-01-20T04:33:49.617Z,-3.60
2019-01-20T04:36:17.863Z,-3.60
2019-01-20T04:38:46.051Z,-3.30
2019-01-20T04:41:14.231Z,-3.60
2019-01-20T04:43:42.388Z,-3.60
2019-01-20T04:46:10.489Z,-3.60
2019-01-20T04:48:38.726Z,-3.70
2019-01-20T04:51:06.910Z,-3.70
2019-01-20T04:53:40.301Z,-3.50
2019-01-20T04:56:07.779Z,-4.00
2019-01-20T04:58:34.701Z,-3.40
2019-01-20T05:01:01.825Z,-3.70
2019-01-20T05:03:28.763Z,-3.70
2019-01-20T05:05:56.979Z,-3.70
2019-01-20T05:08:24.933Z,-3.40
2019-01-20T05:10:53.006Z,-3.80
2019-01-20T05:13:21.031Z,-3.80
2019-01-20T05:15:49.099Z,-3.80
2019-01-20T05:18:17.395Z,-3.70
2019-01-20T05:20:45.317Z,-3.50
2019-01-20T05:23:13.442Z,-3.80
2019-01-20T05:25:44.107Z,-3.90
2019-01-20T05:28:11.307Z,-3.90
2019-01-20T05:30:39.437Z,-3.80
2019-01-20T05:33:08.090Z,-3.90
2019-01-20T05:35:35.024Z,-3.90
2019-01-20T05:38:07.611Z,-3.90
2019-01-20T05:40:34.663Z,-3.90
2019-01-20T05:43:01.726Z,-3.40
2019-01-20T05:45:28.651Z,-3.90
2019-01-20T05:47:56.791Z,-3.90
2019-01-20T05:50:24.894Z,-3.80
2019-01-20T05:52:52.958Z,-4.00
2019-01-20T05:55:21.428Z,-4.00
2019-01-20T05:57:49.565Z,-4.00
2019-01-20T06:00:23.046Z,-3.60
2019-01-20T06:02:51.602Z,-4.00
2019-01-20T06:05:19.812Z,-4.00
2019-01-20T06:07:48.374Z,-3.90
2019-01-20T06:10:16.502Z,-4.00
2019-01-20T06:12:44.942Z,-4.10
2019-01-20T06:15:14.897Z,-4.10
2019-01-20T06:17:43.378Z,-4.10
2019-01-20T06:20:11.717Z,-4.10
2019-01-20T06:22:40.207Z,-4.10
2019-01-20T06:25:08.629Z,-4.10
2019-01-20T06:27:37.126Z,-4.20
2019-01-20T06:30:14.663Z,-3.90
2019-01-20T06:32:41.986Z,-3.60
2019-01-20T06:35:10.123Z,-4.20
2019-01-20T06:37:38.266Z,-3.80
2019-01-20T06:40:06.755Z,-4.10
2019-01-20T06:42:34.690Z,-4.20
2019-01-20T06:45:04.542Z,-4.20
2019-01-20T06:47:32.618Z,-4.20
2019-01-20T06:50:00.564Z,-4.30
2019-01-20T06:52:30.238Z,-4.30
2019-01-20T06:54:57.278Z,-4.30
2019-01-20T06:57:25.836Z,-4.50
2019-01-20T06:59:53.769Z,-4.30
2019-01-20T07:02:21.782Z,-4.30
2019-01-20T07:04:49.832Z,-3.90
2019-01-20T07:07:17.738Z,-3.90
2019-01-20T07:09:45.695Z,-4.20
2019-01-20T07:12:13.930Z,-4.30
2019-01-20T07:14:42.238Z,-4.40
2019-01-20T07:17:12.945Z,-4.40
2019-01-20T07:19:41.245Z,-4.40
2019-01-20T07:22:09.326Z,-4.40
2019-01-20T07:24:39.639Z,-4.30
2019-01-20T07:27:07.574Z,-4.40
2019-01-20T07:29:35.641Z,-4.10
2019-01-20T07:32:05.270Z,-4.40
2019-01-20T07:34:32.192Z,-4.30
2019-01-20T07:37:00.234Z,-4.50
2019-01-20T07:39:28.442Z,-4.10
2019-01-20T07:41:56.354Z,-4.50
2019-01-20T07:44:24.462Z,-4.50
2019-01-20T07:46:52.379Z,-4.50
2019-01-20T07:49:20.990Z,-4.50
2019-01-20T07:51:49.658Z,-4.00
2019-01-20T07:54:18.380Z,-4.30
2019-01-20T07:56:47.306Z,-4.10
2019-01-20T07:59:15.686Z,-4.40
2019-01-20T08:01:44.162Z,-4.10
2019-01-20T08:04:12.546Z,-4.40
2019-01-20T08:06:40.998Z,-4.10
2019-01-20T08:09:09.694Z,-4.50
2019-01-20T08:11:38.178Z,-4.50
2019-01-20T08:14:06.666Z,-4.50
2019-01-20T08:16:35.092Z,-4.10
2019-01-20T08:19:03.336Z,-4.50
2019-01-20T08:21:31.894Z,-4.50
2019-01-20T08:24:06.370Z,-4.50
2019-01-20T08:26:33.902Z,-4.40
2019-01-20T08:29:00.981Z,-4.30
2019-01-20T08:31:28.878Z,-4.40
2019-01-20T08:33:57.710Z,-4.20
2019-01-20T08:36:26.412Z,-4.40
2019-01-20T08:38:55.066Z,-4.40
2019-01-20T08:41:23.350Z,-4.40
2019-01-20T08:43:51.514Z,-4.00
2019-01-20T08:46:47.126Z,-4.30
2019-01-20T08:49:14.694Z,-4.30
2019-01-20T08:51:42.635Z,-4.00
2019-01-20T08:54:09.937Z,-4.10
2019-01-20T08:56:37.476Z,-3.80
2019-01-20T08:59:05.019Z,-3.80
2019-01-20T09:01:32.959Z,-3.80
2019-01-20T09:04:00.746Z,-3.20
2019-01-20T09:06:28.382Z,-3.40
2019-01-20T09:08:55.294Z,-2.50
2019-01-20T09:11:23.722Z,-2.20
2019-01-20T09:13:52.381Z,-1.10
2019-01-20T09:16:21.159Z,-0.40
2019-01-20T09:18:49.351Z,0.30
2019-01-20T09:21:20.265Z,1.00
2019-01-20T09:23:47.451Z,1.20
2019-01-20T09:26:16.297Z,0.80
2019-01-20T09:28:45.218Z,0.30
2019-01-20T09:31:13.754Z,-0.20
2019-01-20T09:33:42.086Z,-0.50
2019-01-20T09:36:10.595Z,-0.80
2019-01-20T09:38:38.854Z,-1.10
2019-01-20T09:41:06.821Z,-1.30
2019-01-20T09:43:35.279Z,-1.30
2019-01-20T09:46:04.109Z,-1.40
2019-01-20T09:48:32.467Z,-1.20
2019-01-20T09:51:01.017Z,-2.10
2019-01-20T09:53:29.205Z,-1.70
2019-01-20T09:55:57.786Z,-1.70
2019-01-20T09:58:26.422Z,-1.70
2019-01-20T10:00:55.338Z,-1.80
2019-01-20T10:03:23.858Z,-1.80
2019-01-20T10:05:52.571Z,-1.80
2019-01-20T10:08:21.358Z,-1.70
2019-01-20T10:10:49.902Z,-1.70
2019-01-20T10:13:18.166Z,-1.70
2019-01-20T10:15:46.335Z,-1.60
2019-01-20T10:18:14.702Z,-1.60
2019-01-20T10:20:43.462Z,-1.50
2019-01-20T10:23:11.534Z,-1.50
2019-01-20T10:25:40.243Z,-1.50
2019-01-20T10:28:10.875Z,-1.50
2019-01-20T10:30:39.526Z,-1.50
2019-01-20T10:33:08.524Z,-1.50
2019-01-20T10:35:46.019Z,-1.40
2019-01-20T10:38:13.451Z,-1.40
2019-01-20T10:40:41.887Z,-1.40
2019-01-20T10:43:09.255Z,-1.40
2019-01-20T10:45:38.315Z,-1.30
2019-01-20T10:48:07.058Z,-1.20
2019-01-20T10:50:36.451Z,-1.20
2019-01-20T10:53:06.929Z,-1.10
2019-01-20T10:55:34.559Z,-1.10
2019-01-20T10:58:02.482Z,-1.00
2019-01-20T11:00:32.170Z,-0.90
2019-01-20T11:03:01.446Z,-0.90
2019-01-20T11:05:31.593Z,-0.80
2019-01-20T11:08:00.771Z,-0.30
2019-01-20T11:10:28.910Z,-0.70
2019-01-20T11:12:57.022Z,-0.70
2019-01-20T11:15:25.844Z,-0.60
2019-01-20T11:17:54.379Z,-0.50
2019-01-20T11:20:22.769Z,-0.50
2019-01-20T11:22:51.525Z,-0.30
2019-01-20T11:25:22.334Z,-0.30
2019-01-20T11:27:50.591Z,-0.20
2019-01-20T11:30:19.450Z,-0.20
2019-01-20T11:32:48.134Z,-0.20
2019-01-20T11:35:17.933Z,-0.10
2019-01-20T11:37:46.897Z,-0.10
2019-01-20T11:40:15.588Z,0.00
2019-01-20T11:42:42.597Z,0.10
2019-01-20T11:45:15.495Z,0.10
2019-01-20T11:47:44.042Z,0.10
2019-01-20T11:50:12.377Z,0.20
2019-01-20T11:52:40.616Z,0.30
2019-01-20T11:55:10.133Z,0.40
2019-01-20T11:57:38.990Z,0.40
2019-01-20T12:00:11.866Z,0.50
2019-01-20T12:02:40.238Z,0.80
2019-01-20T12:05:09.998Z,0.60
2019-01-20T12:07:38.498Z,0.60
2019-01-20T12:10:08.378Z,0.60
2019-01-20T12:12:38.119Z,0.60
2019-01-20T12:15:09.074Z,0.60
2019-01-20T12:17:37.417Z,0.60
2019-01-20T12:20:09.412Z,0.70
2019-01-20T12:22:38.694Z,0.80
2019-01-20T12:25:10.718Z,0.80
2019-01-20T12:27:38.690Z,0.80
2019-01-20T12:30:09.879Z,0.90
2019-01-20T12:32:38.029Z,1.20
2019-01-20T12:35:06.272Z,1.10
2019-01-20T12:37:34.190Z,1.20
2019-01-20T12:40:02.714Z,1.20
2019-01-20T12:42:31.318Z,1.30
2019-01-20T12:44:59.246Z,1.30
2019-01-20T12:47:27.303Z,1.30
2019-01-20T12:49:55.246Z,1.30
2019-01-20T12:52:24.903Z,1.30
2019-01-20T12:54:51.859Z,1.40
2019-01-20T12:57:19.979Z,1.40
2019-01-20T12:59:48.087Z,1.50
2019-01-20T13:02:16.337Z,1.50
2019-01-20T13:04:44.306Z,1.60
2019-01-20T13:07:12.502Z,1.50
2019-01-20T13:09:43.201Z,1.60
2019-01-20T13:12:10.114Z,1.70
2019-01-20T13:14:39.069Z,1.80
2019-01-20T13:17:07.541Z,1.60
2019-01-20T13:19:35.470Z,2.00
2019-01-20T13:22:03.594Z,1.90
2019-01-20T13:24:31.698Z,2.00
2019-01-20T13:27:00.509Z,2.10
2019-01-20T13:29:30.562Z,2.10
2019-01-20T13:31:58.307Z,2.10
2019-01-20T13:34:26.215Z,2.20
2019-01-20T13:36:54.237Z,2.20
2019-01-20T13:39:22.266Z,2.30
2019-01-20T13:41:50.217Z,2.30
2019-01-20T13:44:18.215Z,2.50
2019-01-20T13:46:46.501Z,2.50
2019-01-20T13:49:19.342Z,2.60
2019-01-20T13:51:47.187Z,2.60
2019-01-20T13:54:16.674Z,2.70
2019-01-20T13:56:44.601Z,2.70
2019-01-20T13:59:11.764Z,2.80
2019-01-20T14:01:39.006Z,2.90
2019-01-20T14:04:07.499Z,3.00
2019-01-20T14:06:36.230Z,3.10
2019-01-20T14:09:06.362Z,3.20
2019-01-20T14:11:35.052Z,3.30
2019-01-20T14:14:03.549Z,3.30
2019-01-20T14:16:33.199Z,3.30
2019-01-20T14:19:01.402Z,3.40
2019-01-20T14:21:30.307Z,3.40
2019-01-20T14:23:58.090Z,3.50
2019-01-20T14:26:27.446Z,3.60
2019-01-20T14:28:55.394Z,3.60
2019-01-20T14:31:24.231Z,3.60
2019-01-20T14:33:52.415Z,3.70
2019-01-20T14:36:21.366Z,3.70
2019-01-20T14:38:56.666Z,3.80
2019-01-20T14:41:24.087Z,3.50
2019-01-20T14:43:51.646Z,4.00
2019-01-20T14:46:19.182Z,3.80
2019-01-20T14:48:51.278Z,3.90
2019-01-20T14:51:23.947Z,4.20
2019-01-20T14:53:51.245Z,3.80
2019-01-20T14:56:18.421Z,3.80
2019-01-20T14:58:45.890Z,3.70
2019-01-20T15:01:13.323Z,3.70
2019-01-20T15:03:46.385Z,3.60
2019-01-20T15:06:13.426Z,3.60
2019-01-20T15:08:40.805Z,3.60
2019-01-20T15:11:08.693Z,3.50
2019-01-20T15:13:35.839Z,3.40
2019-01-20T15:16:02.949Z,3.30
2019-01-20T15:18:30.130Z,3.30
2019-01-20T15:20:57.161Z,3.20
2019-01-20T15:23:24.282Z,3.20
2019-01-20T15:25:51.289Z,3.10
2019-01-20T15:28:19.327Z,3.00
2019-01-20T15:30:47.518Z,3.00
2019-01-20T15:33:16.978Z,3.20
2019-01-20T15:35:44.203Z,2.90
2019-01-20T15:38:11.498Z,2.80
2019-01-20T15:40:39.794Z,2.80
2019-01-20T15:43:08.346Z,2.70
2019-01-20T15:45:35.647Z,2.60
2019-01-20T15:48:04.254Z,2.60
2019-01-20T15:50:32.653Z,2.30
2019-01-20T15:53:01.916Z,2.40
2019-01-20T15:55:30.683Z,2.40
2019-01-20T15:57:58.759Z,2.40
2019-01-20T16:00:29.920Z,2.20
2019-01-20T16:02:57.535Z,2.20
2019-01-20T16:05:27.170Z,2.20
2019-01-20T16:08:11.956Z,2.10
2019-01-20T16:10:42.766Z,2.10
2019-01-20T16:13:10.641Z,1.90
2019-01-20T16:15:44.666Z,1.90
2019-01-20T16:18:14.352Z,1.90
2019-01-20T16:20:41.470Z,1.70
2019-01-20T16:23:09.647Z,1.70
2019-01-20T16:25:37.786Z,1.60
2019-01-20T16:28:10.314Z,1.60
2019-01-20T16:30:38.542Z,1.50
2019-01-20T16:33:05.978Z,1.50
2019-01-20T16:35:36.295Z,1.50
2019-01-20T16:38:05.087Z,1.40
2019-01-20T16:40:35.010Z,1.30
2019-01-20T16:43:02.458Z,1.30
2019-01-20T16:45:42.067Z,1.20
2019-01-20T16:48:08.008Z,1.10
2019-01-20T16:50:37.265Z,1.10
2019-01-20T16:53:04.984Z,1.10
2019-01-20T16:55:32.959Z,0.80
2019-01-20T16:58:00.506Z,1.50
2019-01-20T17:00:29.268Z,1.00
2019-01-20T17:03:03.286Z,0.90
2019-01-20T17:05:30.720Z,0.80
2019-01-20T17:07:58.123Z,0.80
2019-01-20T17:10:28.062Z,0.80
2019-01-20T17:12:55.401Z,0.70
2019-01-20T17:15:25.967Z,0.70
2019-01-20T17:17:53.383Z,0.60
2019-01-20T17:20:21.015Z,0.60
2019-01-20T17:22:48.540Z,0.50
2019-01-20T17:25:16.292Z,0.40
2019-01-20T17:27:49.371Z,0.40
2019-01-20T17:30:21.590Z,0.40
2019-01-20T17:32:49.773Z,0.40
2019-01-20T17:35:20.282Z,0.30
2019-01-20T17:37:53.672Z,0.00
2019-01-20T17:40:23.325Z,0.30
2019-01-20T17:42:50.690Z,0.30
2019-01-20T17:45:20.674Z,0.30
2019-01-20T17:47:49.912Z,0.20
2019-01-20T17:50:23.642Z,0.20
2019-01-20T17:52:53.026Z,0.20
2019-01-20T17:55:20.919Z,0.10
2019-01-20T17:57:51.199Z,0.10
2019-01-20T18:00:20.781Z,0.00
2019-01-20T18:02:48.315Z,0.00
2019-01-20T18:05:18.944Z,0.00
2019-01-20T18:07:47.038Z,0.00
2019-01-20T18:10:14.615Z,0.00
2019-01-20T18:12:41.785Z,-0.10
2019-01-20T18:15:10.757Z,0.30
2019-01-20T18:17:38.726Z,-0.20
2019-01-20T18:20:09.052Z,-0.20
2019-01-20T18:22:36.139Z,-0.20
2019-01-20T18:25:04.091Z,-0.30
2019-01-20T18:27:31.451Z,-0.30
2019-01-20T18:30:00.323Z,-0.40
2019-01-20T18:32:28.647Z,-0.40
2019-01-20T18:34:56.903Z,-0.40
2019-01-20T18:37:25.323Z,-0.40
2019-01-20T18:39:53.847Z,-0.50
2019-01-20T18:42:22.608Z,-0.50
2019-01-20T18:44:50.881Z,-0.50
2019-01-20T18:47:19.510Z,-0.60
2019-01-20T18:49:47.711Z,-0.60
2019-01-20T18:52:16.250Z,-0.60
2019-01-20T18:54:44.584Z,-0.70
2019-01-20T18:57:13.007Z,-0.70
2019-01-20T18:59:41.628Z,-0.70
2019-01-20T19:02:09.992Z,-0.70
2019-01-20T19:04:38.657Z,-0.80
2019-01-20T19:07:06.610Z,-0.80
2019-01-20T19:09:34.748Z,-0.90
2019-01-20T19:12:04.602Z,-0.90
2019-01-20T19:14:34.746Z,-0.90
2019-01-20T19:17:01.989Z,-1.00
2019-01-20T19:19:30.229Z,-1.00
2019-01-20T19:21:59.075Z,-1.00
2019-01-20T19:24:30.093Z,-1.00
2019-01-20T19:26:57.825Z,-1.10
2019-01-20T19:29:25.684Z,-1.10
2019-01-20T19:31:55.671Z,-1.20
2019-01-20T19:34:22.876Z,-1.20
2019-01-20T19:36:50.094Z,-1.20
2019-01-20T19:39:17.378Z,-1.20
2019-01-20T19:41:46.410Z,-1.20
2019-01-20T19:44:13.821Z,-1.30
2019-01-20T19:46:42.574Z,-1.30
2019-01-20T19:49:10.897Z,-1.30
2019-01-20T19:51:39.017Z,-1.30
2019-01-20T19:54:07.096Z,-1.40
2019-01-20T19:56:35.178Z,-1.40
2019-01-20T19:59:03.488Z,-1.40
2019-01-20T20:01:31.420Z,-1.40
2019-01-20T20:03:59.552Z,-1.40
2019-01-20T20:06:27.663Z,-1.50
2019-01-20T20:08:55.975Z,-1.50
2019-01-20T20:11:25.966Z,-1.50
2019-01-20T20:13:53.028Z,-1.60
2019-01-20T20:16:23.528Z,-1.60
2019-01-20T20:18:51.157Z,-1.60
2019-01-20T20:21:19.559Z,-1.60
2019-01-20T20:23:50.815Z,-1.60
2019-01-20T20:26:17.830Z,-1.30
2019-01-20T20:28:44.941Z,-1.70
2019-01-20T20:31:14.462Z,-1.70
2019-01-20T20:33:41.426Z,-1.70
2019-01-20T20:36:15.550Z,-1.70
2019-01-20T20:38:44.715Z,-1.80
2019-01-20T20:41:11.758Z,-1.80
2019-01-20T20:43:38.799Z,-1.80
2019-01-20T20:46:06.075Z,-1.90
2019-01-20T20:48:33.011Z,-1.90
2019-01-20T20:51:00.222Z,-1.90
2019-01-20T20:53:28.290Z,-1.90
2019-01-20T20:55:55.344Z,-2.00
2019-01-20T20:58:22.683Z,-2.00
2019-01-20T21:00:52.691Z,-2.00
2019-01-20T21:03:29.270Z,-2.00
2019-01-20T21:05:57.180Z,-2.00
2019-01-20T21:08:24.401Z,-2.10
2019-01-20T21:10:55.131Z,-2.10
2019-01-20T21:13:22.638Z,-2.20
2019-01-20T21:15:50.949Z,-2.20
2019-01-20T21:18:20.903Z,-2.20
2019-01-20T21:20:48.226Z,-2.20
2019-01-20T21:23:17.361Z,-2.20
2019-01-20T21:25:45.653Z,-2.30
2019-01-20T21:28:14.947Z,-2.30
2019-01-20T21:30:44.510Z,-2.30
2019-01-20T21:33:12.031Z,-2.40
2019-01-20T21:35:39.897Z,-2.40
2019-01-20T21:38:07.663Z,-2.40
2019-01-20T21:40:36.154Z,-2.40
2019-01-20T21:43:04.911Z,-2.50
2019-01-20T21:45:33.162Z,-2.50
2019-01-20T21:48:01.363Z,-2.50
2019-01-20T21:50:30.133Z,-2.50
2019-01-20T21:52:59.242Z,-2.60
2019-01-20T21:55:26.465Z,-2.60
2019-01-20T21:57:54.683Z,-2.30
2019-01-20T22:00:24.331Z,-2.60
2019-01-20T22:02:52.432Z,-2.60
2019-01-20T22:05:21.442Z,-2.60
2019-01-20T22:07:49.874Z,-2.60
2019-01-20T22:10:18.746Z,-2.70
2019-01-20T22:12:47.200Z,-2.70
2019-01-20T22:15:15.094Z,-2.70
2019-01-20T22:17:43.972Z,-2.70
2019-01-20T22:20:14.137Z,-2.80
2019-01-20T22:22:42.458Z,-2.70
2019-01-20T22:25:11.485Z,-2.80
2019-01-20T22:27:40.012Z,-2.80
2019-01-20T22:30:13.947Z,-2.80
2019-01-20T22:32:41.549Z,-2.80
2019-01-20T22:35:09.443Z,-2.90
2019-01-20T22:37:37.940Z,-2.90
2019-01-20T22:40:07.471Z,-2.80
2019-01-20T22:42:34.527Z,-2.90
2019-01-20T22:45:02.743Z,-2.80
2019-01-20T22:47:32.358Z,-2.40
2019-01-20T22:50:00.574Z,-2.90
2019-01-20T22:52:28.892Z,-3.00
2019-01-20T22:54:58.122Z,-3.00
2019-01-20T22:57:26.990Z,-3.10
2019-01-20T22:59:55.326Z,-3.00
2019-01-20T23:02:24.006Z,-3.00
2019-01-20T23:04:52.738Z,-3.10
2019-01-20T23:07:22.211Z,-3.10
2019-01-20T23:09:49.503Z,-3.20
2019-01-20T23:12:17.279Z,-3.20
2019-01-20T23:14:45.626Z,-3.20
2019-01-20T23:17:14.115Z,-3.20
2019-01-20T23:19:41.702Z,-3.20
2019-01-20T23:22:10.502Z,-3.30
2019-01-20T23:24:42.210Z,-2.90
2019-01-20T23:27:09.526Z,-3.20
2019-01-20T23:29:36.777Z,-3.20
2019-01-20T23:32:04.264Z,-3.30
2019-01-20T23:34:32.619Z,-3.30
2019-01-20T23:37:01.127Z,-3.40
2019-01-20T23:39:29.764Z,-3.30
2019-01-20T23:41:58.594Z,-3.40
2019-01-20T23:44:26.783Z,-2.90
2019-01-20T23:46:55.370Z,-3.40
2019-01-20T23:49:24.235Z,-3.40
2019-01-20T23:51:52.800Z,-3.50
2019-01-20T23:54:21.312Z,-3.00
2019-01-20T23:56:50.012Z,-3.50
2019-01-20T23:59:18.284Z,-3.50
